Time;durP1;ratioP1;P1;durP2;ratioP2;P2;SDS_P1;SDS_P2;PMS_P1;PMS_P2;Temp;Humidity;BMP_temperature;BMP_pressure;BME280_temperature;BME280_humidity;BME280_pressure;Samples;Min_cycle;Max_cycle;Signal;HPM_P1;HPM_P2
2023/09/22 00:00:49;;;;;;;0.93;0.30;;;15.00;99.90;;;;;;4976333;28;20054;-83
2023/09/22 00:03:15;;;;;;;2.17;0.30;;;15.00;99.90;;;;;;4973963;28;20034;-84
2023/09/22 00:05:41;;;;;;;1.77;0.32;;;15.00;99.90;;;;;;4967424;28;20022;-83
2023/09/22 00:08:07;;;;;;;1.25;0.60;;;15.00;99.90;;;;;;4972330;28;20030;-82
2023/09/22 00:10:33;;;;;;;0.82;0.30;;;15.00;99.90;;;;;;4970903;28;20612;-80
2023/09/22 00:12:59;;;;;;;0.30;0.25;;;15.00;99.90;;;;;;4970993;28;20019;-82
2023/09/22 00:15:27;;;;;;;2.33;0.30;;;15.00;99.90;;;;;;4975627;28;20835;-83
2023/09/22 00:17:53;;;;;;;3.50;0.40;;;14.90;99.90;;;;;;4975177;28;20114;-84
2023/09/22 00:20:20;;;;;;;1.05;0.20;;;14.90;99.90;;;;;;4967814;28;20026;-85
2023/09/22 00:22:46;;;;;;;0.82;0.30;;;14.90;99.90;;;;;;4968438;28;20078;-81
2023/09/22 00:25:12;;;;;;;6.13;0.40;;;14.90;99.90;;;;;;4956234;28;20035;-82
2023/09/22 00:27:38;;;;;;;0.40;0.25;;;14.90;99.90;;;;;;4976156;28;20038;-85
2023/09/22 00:30:05;;;;;;;0.70;0.20;;;14.90;99.90;;;;;;4957884;28;20392;-82
2023/09/22 00:32:31;;;;;;;2.13;0.25;;;14.90;99.90;;;;;;4945348;28;20042;-82
2023/09/22 00:34:57;;;;;;;0.30;0.13;;;15.00;99.90;;;;;;4956272;28;20031;-81
2023/09/22 00:37:23;;;;;;;0.85;0.28;;;14.90;99.90;;;;;;4978115;28;20113;-82
2023/09/22 00:39:49;;;;;;;0.60;0.10;;;14.90;99.90;;;;;;4955489;28;20050;-82
2023/09/22 00:42:14;;;;;;;1.13;0.30;;;14.90;99.90;;;;;;4981209;28;20113;-81
2023/09/22 00:44:40;;;;;;;1.42;0.20;;;14.90;99.90;;;;;;4973789;28;20022;-82
2023/09/22 00:47:09;;;;;;;0.50;0.20;;;14.90;99.90;;;;;;4973761;28;20042;-82
2023/09/22 00:49:36;;;;;;;0.63;0.30;;;14.80;99.90;;;;;;4960402;28;20034;-83
2023/09/22 00:52:06;;;;;;;1.38;0.20;;;14.80;99.90;;;;;;4976258;28;20126;-82
2023/09/22 00:54:32;;;;;;;1.55;0.10;;;14.80;99.90;;;;;;4947629;28;20026;-82
2023/09/22 00:56:59;;;;;;;0.35;0.28;;;14.80;99.90;;;;;;4986033;28;20442;-83
2023/09/22 00:59:26;;;;;;;0.95;0.17;;;14.90;99.90;;;;;;4974004;28;20108;-83
2023/09/22 01:01:51;;;;;;;0.63;0.22;;;14.90;99.90;;;;;;4975488;28;20085;-82
2023/09/22 01:04:19;;;;;;;1.05;0.30;;;14.90;99.90;;;;;;4977175;28;20030;-82
2023/09/22 01:06:48;;;;;;;0.50;0.20;;;14.80;99.90;;;;;;4959585;28;20031;-83
2023/09/22 01:09:14;;;;;;;1.35;0.15;;;14.80;99.90;;;;;;4939363;28;20313;-85
2023/09/22 01:11:41;;;;;;;0.40;0.40;;;14.80;99.90;;;;;;4965513;28;20113;-82
2023/09/22 01:14:25;;;;;;;0.47;0.17;;;14.80;99.90;;;;;;4965375;28;20094;-82
2023/09/22 01:16:51;;;;;;;0.20;0.20;;;14.80;99.90;;;;;;4960945;28;20035;-81
2023/09/22 01:19:18;;;;;;;1.27;0.20;;;14.80;99.90;;;;;;4941889;28;20034;-82
2023/09/22 01:21:46;;;;;;;2.92;0.20;;;14.70;99.90;;;;;;4979698;28;20041;-83
2023/09/22 01:24:13;;;;;;;1.33;0.30;;;14.70;99.90;;;;;;4975243;28;20035;-83
2023/09/22 01:26:39;;;;;;;0.38;0.20;;;14.70;99.90;;;;;;4972671;28;20085;-83
2023/09/22 01:29:06;;;;;;;0.20;0.20;;;14.70;99.90;;;;;;4973713;28;20043;-81
2023/09/22 01:31:33;;;;;;;0.28;0.20;;;14.70;99.90;;;;;;4965440;28;20426;-83
2023/09/22 01:34:01;;;;;;;0.30;0.30;;;14.70;99.90;;;;;;4957260;28;20039;-82
2023/09/22 01:36:28;;;;;;;0.43;0.20;;;14.70;99.90;;;;;;4977249;28;20129;-83
2023/09/22 01:38:54;;;;;;;0.40;0.20;;;14.70;99.90;;;;;;4978216;28;20085;-83
2023/09/22 01:41:20;;;;;;;0.30;0.20;;;14.60;99.90;;;;;;4966117;28;20077;-83
2023/09/22 01:43:45;;;;;;;0.25;0.20;;;14.60;99.90;;;;;;4958327;28;20559;-83
2023/09/22 01:46:11;;;;;;;3.33;0.50;;;14.60;99.90;;;;;;4980445;28;20030;-83
2023/09/22 01:48:37;;;;;;;4.30;0.30;;;14.60;99.90;;;;;;4960992;28;20062;-83
2023/09/22 01:51:03;;;;;;;0.30;0.30;;;14.60;99.90;;;;;;4950388;28;20492;-81
2023/09/22 01:53:29;;;;;;;0.10;0.10;;;14.60;99.90;;;;;;4958094;28;20046;-81
2023/09/22 01:55:55;;;;;;;2.08;0.30;;;14.60;99.90;;;;;;4965282;28;20294;-83
2023/09/22 01:58:22;;;;;;;2.60;0.30;;;14.60;99.90;;;;;;4961069;28;20086;-81
2023/09/22 02:00:48;;;;;;;1.55;0.30;;;14.60;99.90;;;;;;4942199;28;20113;-83
2023/09/22 02:03:15;;;;;;;3.00;0.52;;;14.60;99.90;;;;;;4949626;28;20467;-82
2023/09/22 02:05:40;;;;;;;0.82;0.30;;;14.60;99.90;;;;;;4982009;28;20023;-82
2023/09/22 02:08:08;;;;;;;2.05;0.40;;;14.60;99.90;;;;;;4959484;28;20061;-81
2023/09/22 02:10:34;;;;;;;0.30;0.30;;;14.60;99.90;;;;;;4960582;28;20101;-81
2023/09/22 02:13:01;;;;;;;0.98;0.38;;;14.60;99.90;;;;;;4979790;28;20125;-83
2023/09/22 02:15:26;;;;;;;1.08;0.40;;;14.60;99.90;;;;;;4955552;28;20081;-81
2023/09/22 02:17:53;;;;;;;1.25;0.40;;;14.60;99.90;;;;;;4972786;28;20128;-81
2023/09/22 02:20:22;;;;;;;0.52;0.35;;;14.60;99.90;;;;;;4961368;28;20039;-83
2023/09/22 02:22:50;;;;;;;1.67;0.40;;;14.60;99.90;;;;;;4980290;28;20138;-85
2023/09/22 02:25:19;;;;;;;0.55;0.40;;;14.60;99.90;;;;;;4955622;28;20031;-83
2023/09/22 02:27:49;;;;;;;1.65;0.55;;;14.70;99.90;;;;;;4952980;28;20022;-82
2023/09/22 02:30:16;;;;;;;1.33;0.55;;;14.70;99.90;;;;;;4963061;28;20038;-83
2023/09/22 02:32:48;;;;;;;0.30;0.30;;;14.60;99.90;;;;;;4959386;28;20086;-83
2023/09/22 02:35:21;;;;;;;1.20;0.77;;;14.70;99.90;;;;;;4974353;28;20034;-80
2023/09/22 02:37:47;;;;;;;3.70;0.57;;;14.70;99.90;;;;;;4972794;28;20062;-82
2023/09/22 02:40:14;;;;;;;1.48;0.45;;;14.70;99.90;;;;;;4958744;28;20047;-83
2023/09/22 02:42:43;;;;;;;0.73;0.52;;;14.70;99.90;;;;;;4962291;28;20229;-82
2023/09/22 02:45:09;;;;;;;0.52;0.52;;;14.60;99.90;;;;;;4961433;28;20427;-80
2023/09/22 02:47:37;;;;;;;0.82;0.60;;;14.70;99.90;;;;;;4957368;28;20030;-82
2023/09/22 02:50:10;;;;;;;0.93;0.75;;;14.60;99.90;;;;;;4938076;28;20038;-84
2023/09/22 02:52:38;;;;;;;0.77;0.60;;;14.60;99.90;;;;;;4961684;28;20536;-84
2023/09/22 02:55:07;;;;;;;0.63;0.63;;;14.60;99.90;;;;;;4938598;28;20440;-84
2023/09/22 02:57:35;;;;;;;2.28;0.90;;;14.60;99.90;;;;;;4958601;28;20030;-80
2023/09/22 03:00:07;;;;;;;1.58;0.85;;;14.60;99.90;;;;;;4955029;28;20043;-81
2023/09/22 03:02:33;;;;;;;2.95;0.93;;;14.50;99.90;;;;;;4971291;28;20035;-82
2023/09/22 03:05:01;;;;;;;1.83;0.93;;;14.40;99.90;;;;;;4955692;28;20037;-83
2023/09/22 03:07:27;;;;;;;0.95;0.85;;;14.40;99.90;;;;;;4960712;28;20019;-82
2023/09/22 03:09:53;;;;;;;1.80;0.90;;;14.40;99.90;;;;;;4968567;28;20057;-81
2023/09/22 03:12:21;;;;;;;1.27;1.17;;;14.40;99.90;;;;;;4960054;28;20632;-83
2023/09/22 03:14:48;;;;;;;2.55;1.30;;;14.40;99.90;;;;;;4975910;28;20026;-83
2023/09/22 03:17:14;;;;;;;2.03;1.23;;;14.40;99.90;;;;;;4938998;28;20039;-81
2023/09/22 03:19:40;;;;;;;1.13;1.02;;;14.30;99.90;;;;;;4960991;28;20030;-80
2023/09/22 03:22:08;;;;;;;1.17;1.00;;;14.30;99.90;;;;;;4960168;28;20125;-81
2023/09/22 03:24:35;;;;;;;1.30;1.20;;;14.30;99.90;;;;;;4931748;28;20688;-80
2023/09/22 03:27:01;;;;;;;1.52;1.42;;;14.20;99.90;;;;;;4937301;28;20053;-82
2023/09/22 03:29:28;;;;;;;2.97;1.10;;;14.30;99.90;;;;;;4963585;28;20031;-83
2023/09/22 03:31:54;;;;;;;1.10;0.98;;;14.20;99.90;;;;;;4942027;28;20031;-81
2023/09/22 03:34:21;;;;;;;1.30;1.20;;;14.20;99.90;;;;;;4972273;28;20041;-81
2023/09/22 03:36:49;;;;;;;1.75;1.50;;;14.20;99.90;;;;;;4943242;28;20027;-85
2023/09/22 03:39:16;;;;;;;1.38;1.17;;;14.20;99.90;;;;;;4944866;28;20631;-82
2023/09/22 03:41:42;;;;;;;2.33;1.33;;;14.20;99.90;;;;;;4953668;28;20030;-83
2023/09/22 03:44:08;;;;;;;1.67;1.58;;;14.10;99.90;;;;;;4942300;28;20090;-84
2023/09/22 03:46:34;;;;;;;1.80;1.30;;;14.10;99.90;;;;;;4973488;28;20026;-80
2023/09/22 03:49:00;;;;;;;1.27;1.17;;;14.10;99.90;;;;;;4938742;28;20518;-81
2023/09/22 03:51:28;;;;;;;1.88;1.75;;;14.10;99.90;;;;;;4959976;28;20101;-83
2023/09/22 03:53:54;;;;;;;3.00;1.35;;;14.00;99.90;;;;;;4964108;28;20102;-85
2023/09/22 03:56:19;;;;;;;2.75;1.48;;;14.00;99.90;;;;;;4959928;28;20466;-84
2023/09/22 03:58:45;;;;;;;2.45;1.60;;;14.10;99.90;;;;;;4973073;28;20507;-82
2023/09/22 04:01:11;;;;;;;3.80;1.58;;;14.00;99.90;;;;;;4943417;28;20507;-83
2023/09/22 04:03:37;;;;;;;1.40;1.27;;;14.00;99.90;;;;;;4972197;28;20035;-85
2023/09/22 04:06:21;;;;;;;2.20;1.20;;;14.00;99.90;;;;;;4961807;28;20081;-84
2023/09/22 04:08:48;;;;;;;3.05;1.40;;;14.00;99.90;;;;;;4938332;28;20034;-85
2023/09/22 04:11:14;;;;;;;1.90;1.55;;;14.00;99.90;;;;;;4943982;28;20031;-83
2023/09/22 04:13:40;;;;;;;1.40;1.30;;;14.00;99.90;;;;;;4957908;28;20026;-84
2023/09/22 04:16:06;;;;;;;1.55;1.45;;;14.00;99.90;;;;;;4939603;28;20448;-83
2023/09/22 04:18:32;;;;;;;3.38;1.65;;;14.00;99.90;;;;;;4976324;28;20050;-82
2023/09/22 04:21:01;;;;;;;1.42;1.30;;;14.00;99.90;;;;;;4960584;28;20023;-83
2023/09/22 04:23:27;;;;;;;1.33;1.23;;;14.00;99.90;;;;;;4959014;28;20515;-86
2023/09/22 04:25:54;;;;;;;2.03;1.50;;;14.00;99.90;;;;;;4972083;28;20106;-85
2023/09/22 04:28:23;;;;;;;1.70;1.60;;;14.00;99.90;;;;;;4950808;28;20548;-84
2023/09/22 04:30:49;;;;;;;2.92;1.70;;;13.90;99.90;;;;;;4940543;28;20035;-85
2023/09/22 04:33:15;;;;;;;1.63;1.40;;;13.90;99.90;;;;;;4968415;28;20026;-85
2023/09/22 04:35:41;;;;;;;1.63;1.52;;;13.90;99.90;;;;;;4953910;28;20058;-85
2023/09/22 04:38:08;;;;;;;2.58;1.38;;;13.90;99.90;;;;;;4954734;28;20094;-83
2023/09/22 04:40:38;;;;;;;1.70;1.60;;;13.90;99.90;;;;;;4954286;28;20038;-83
2023/09/22 04:43:07;;;;;;;3.28;1.90;;;13.90;99.90;;;;;;4954344;28;20061;-84
2023/09/22 04:45:37;;;;;;;2.05;1.83;;;13.90;99.90;;;;;;4959298;28;20718;-86
2023/09/22 04:48:05;;;;;;;2.65;2.00;;;13.90;99.90;;;;;;4940141;28;20446;-84
2023/09/22 04:50:31;;;;;;;2.30;2.10;;;13.90;99.90;;;;;;4955510;28;20050;-82
2023/09/22 04:52:58;;;;;;;2.42;1.90;;;13.90;99.90;;;;;;4968415;28;20034;-83
2023/09/22 04:55:25;;;;;;;1.95;1.80;;;13.90;99.90;;;;;;4947241;28;20061;-81
2023/09/22 04:57:50;;;;;;;5.28;1.77;;;13.90;99.90;;;;;;4953668;28;20494;-80
2023/09/22 05:00:16;;;;;;;5.05;2.35;;;13.80;99.90;;;;;;4969603;28;20031;-82
2023/09/22 05:02:45;;;;;;;2.78;2.08;;;13.90;99.90;;;;;;4967514;28;20026;-82
2023/09/22 05:05:12;;;;;;;2.10;1.80;;;13.90;99.90;;;;;;4970739;28;20189;-82
2023/09/22 05:07:38;;;;;;;2.80;1.90;;;13.80;99.90;;;;;;4970484;28;20027;-85
2023/09/22 05:10:05;;;;;;;2.10;2.00;;;13.80;99.90;;;;;;4970743;28;20671;-82
2023/09/22 05:12:31;;;;;;;1.73;1.63;;;13.80;99.90;;;;;;4958804;28;20109;-84
2023/09/22 05:14:58;;;;;;;4.50;2.08;;;13.80;99.90;;;;;;4956705;28;20047;-83
2023/09/22 05:17:24;;;;;;;2.08;1.90;;;13.80;99.90;;;;;;4972941;28;20022;-85
2023/09/22 05:19:50;;;;;;;1.88;1.77;;;13.80;99.90;;;;;;4972700;28;20114;-84
2023/09/22 05:22:21;;;;;;;2.63;2.17;;;13.80;99.90;;;;;;4973236;28;20031;-83
2023/09/22 05:24:47;;;;;;;3.67;2.17;;;13.90;99.90;;;;;;4957236;28;20038;-84
2023/09/22 05:27:14;;;;;;;2.22;2.13;;;13.80;99.90;;;;;;4937591;28;20620;-83
2023/09/22 05:29:41;;;;;;;2.38;2.17;;;13.80;99.90;;;;;;4954310;28;20607;-83
2023/09/22 05:32:10;;;;;;;2.50;2.30;;;13.80;99.90;;;;;;4969149;28;20109;-83
2023/09/22 05:34:38;;;;;;;2.60;2.33;;;13.80;99.90;;;;;;4967868;28;20087;-82
2023/09/22 05:37:04;;;;;;;2.83;2.55;;;13.80;99.90;;;;;;4950774;28;20938;-82
2023/09/22 05:39:29;;;;;;;2.22;2.00;;;13.80;99.90;;;;;;4957177;28;20027;-82
2023/09/22 05:42:52;;;;;;;3.40;2.70;;;13.80;99.90;;;;;;4941222;28;20507;-83
2023/09/22 05:45:44;;;;;;;2.60;2.40;;;13.80;99.90;;;;;;4971786;28;20101;-83
2023/09/22 05:48:13;;;;;;;3.40;2.65;;;13.80;99.90;;;;;;4953110;28;20677;-82
2023/09/22 05:50:41;;;;;;;2.47;2.28;;;13.80;99.90;;;;;;4941280;28;20623;-83
2023/09/22 05:53:16;;;;;;;3.22;2.35;;;13.90;99.90;;;;;;4955493;28;20788;-81
2023/09/22 05:55:45;;;;;;;2.22;2.03;;;13.90;99.90;;;;;;4963508;28;20046;-83
2023/09/22 05:58:14;;;;;;;2.40;1.70;;;13.80;99.90;;;;;;4979505;28;20015;-83
2023/09/22 06:00:46;;;;;;;3.95;2.13;;;13.90;99.90;;;;;;4980631;28;20438;-81
2023/09/22 06:03:33;;;;;;;2.92;2.10;;;13.80;99.90;;;;;;4972133;28;20062;-82
2023/09/22 06:06:08;;;;;;;2.80;1.92;;;13.90;99.90;;;;;;4985913;28;20034;-82
2023/09/22 06:08:36;;;;;;;3.60;1.90;;;13.90;99.90;;;;;;4976773;28;20031;-80
2023/09/22 06:11:05;;;;;;;4.10;1.90;;;13.90;99.90;;;;;;4975080;28;20029;-82
2023/09/22 06:13:32;;;;;;;2.88;1.90;;;13.90;99.90;;;;;;4979859;28;20411;-81
2023/09/22 06:15:58;;;;;;;1.95;1.85;;;13.90;99.90;;;;;;4977534;28;20065;-80
2023/09/22 06:18:24;;;;;;;3.00;1.90;;;13.90;99.90;;;;;;4974852;28;20039;-82
2023/09/22 06:20:58;;;;;;;3.45;1.90;;;13.90;99.90;;;;;;4978252;28;20521;-82
2023/09/22 06:23:24;;;;;;;2.42;2.03;;;13.90;99.90;;;;;;4968899;28;20030;-80
2023/09/22 06:25:56;;;;;;;2.15;1.67;;;13.90;99.90;;;;;;4969161;28;20023;-81
2023/09/22 06:28:22;;;;;;;1.88;1.77;;;13.90;99.90;;;;;;4975124;28;20038;-80
2023/09/22 06:30:48;;;;;;;1.77;1.67;;;13.90;99.90;;;;;;4971747;28;20027;-82
2023/09/22 06:33:17;;;;;;;3.45;1.95;;;13.90;99.90;;;;;;4978392;28;20081;-81
2023/09/22 06:35:45;;;;;;;1.98;1.77;;;13.90;99.90;;;;;;4973237;28;20073;-82
2023/09/22 06:38:11;;;;;;;2.25;2.00;;;13.90;99.90;;;;;;4975712;28;20026;-82
2023/09/22 06:40:38;;;;;;;1.98;1.75;;;13.90;99.90;;;;;;4975294;28;20019;-82
2023/09/22 06:43:04;;;;;;;2.83;1.90;;;13.90;99.90;;;;;;4973044;28;20655;-82
2023/09/22 06:45:34;;;;;;;4.32;2.08;;;13.90;99.90;;;;;;4970773;28;20030;-81
2023/09/22 06:48:00;;;;;;;2.22;2.10;;;13.90;99.90;;;;;;4973976;28;20194;-82
2023/09/22 06:50:27;;;;;;;2.33;2.13;;;13.90;99.90;;;;;;4970607;28;20109;-81
2023/09/22 06:52:53;;;;;;;2.55;2.20;;;13.90;99.90;;;;;;4969541;28;20077;-84
2023/09/22 06:55:19;;;;;;;2.13;1.90;;;13.90;99.90;;;;;;4970640;28;20054;-80
2023/09/22 06:57:45;;;;;;;3.28;1.88;;;13.80;99.90;;;;;;4952376;28;20127;-83
2023/09/22 07:00:22;;;;;;;2.35;2.10;;;13.80;99.90;;;;;;4964822;28;20039;-81
2023/09/22 07:02:48;;;;;;;2.75;1.90;;;13.90;99.90;;;;;;4968334;28;20038;-82
2023/09/22 07:05:19;;;;;;;2.75;1.77;;;13.90;99.90;;;;;;4971649;28;20097;-83
2023/09/22 07:07:46;;;;;;;2.72;2.10;;;13.80;99.90;;;;;;4956536;28;20105;-83
2023/09/22 07:10:13;;;;;;;3.05;1.92;;;13.90;99.90;;;;;;4971359;28;20034;-83
2023/09/22 07:12:42;;;;;;;3.97;1.80;;;13.90;99.90;;;;;;4957563;28;20025;-83
2023/09/22 07:15:09;;;;;;;2.30;1.60;;;14.00;99.90;;;;;;4944000;28;20035;-84
2023/09/22 07:17:34;;;;;;;2.03;1.48;;;14.00;99.90;;;;;;4957226;28;20035;-84
2023/09/22 07:20:01;;;;;;;7.32;1.52;;;14.00;99.90;;;;;;4939617;28;20039;-82
2023/09/22 07:22:34;;;;;;;2.58;1.30;;;13.90;99.90;;;;;;4956511;28;20039;-82
2023/09/22 07:25:00;;;;;;;1.55;1.45;;;14.00;99.90;;;;;;4955499;28;20036;-83
2023/09/22 07:27:27;;;;;;;1.30;1.20;;;13.90;99.90;;;;;;4972620;28;20065;-85
2023/09/22 07:29:52;;;;;;;4.43;1.38;;;14.00;99.90;;;;;;4971616;28;20027;-84
2023/09/22 07:32:19;;;;;;;2.45;1.60;;;14.00;99.90;;;;;;4956421;28;20173;-83
2023/09/22 07:34:45;;;;;;;1.50;1.40;;;14.00;99.90;;;;;;4956207;28;20031;-82
2023/09/22 07:37:12;;;;;;;1.88;1.38;;;14.00;99.90;;;;;;4973772;28;20491;-82
2023/09/22 07:39:44;;;;;;;2.55;1.20;;;13.90;99.90;;;;;;4927708;28;20034;-81
2023/09/22 07:42:13;;;;;;;1.95;1.15;;;13.90;99.90;;;;;;4957163;28;20136;-85
2023/09/22 07:44:39;;;;;;;3.65;1.30;;;13.90;99.90;;;;;;4952225;28;20031;-81
2023/09/22 07:47:10;;;;;;;1.20;1.10;;;13.90;99.90;;;;;;4973300;28;20043;-82
2023/09/22 07:49:40;;;;;;;1.52;1.00;;;14.00;99.90;;;;;;4955763;28;20042;-86
2023/09/22 07:52:10;;;;;;;1.60;1.15;;;14.00;99.90;;;;;;4955108;28;20106;-83
2023/09/22 07:54:39;;;;;;;2.78;1.23;;;14.10;99.90;;;;;;4955872;28;20170;-81
2023/09/22 07:57:05;;;;;;;1.52;1.00;;;14.10;99.90;;;;;;4972798;28;20771;-81
2023/09/22 07:59:31;;;;;;;1.15;0.90;;;14.20;99.90;;;;;;4972739;28;20050;-83
2023/09/22 08:02:02;;;;;;;1.15;1.05;;;14.20;99.90;;;;;;4953487;28;20033;-82
2023/09/22 08:04:28;;;;;;;5.28;1.20;;;14.20;99.90;;;;;;4975778;28;20035;-80
2023/09/22 08:06:53;;;;;;;2.33;0.95;;;14.30;99.90;;;;;;4975745;28;20026;-82
2023/09/22 08:09:21;;;;;;;1.10;1.00;;;14.30;99.90;;;;;;4971857;28;20042;-80
2023/09/22 08:11:47;;;;;;;1.77;1.23;;;14.30;99.90;;;;;;4975148;28;20039;-81
2023/09/22 08:14:13;;;;;;;3.25;1.38;;;14.40;99.90;;;;;;4971606;28;20464;-81
2023/09/22 08:16:39;;;;;;;2.25;0.90;;;14.40;99.90;;;;;;4971965;28;20034;-80
2023/09/22 08:19:11;;;;;;;1.23;0.90;;;14.50;99.90;;;;;;4971747;28;20038;-80
2023/09/22 08:21:40;;;;;;;1.38;1.05;;;14.50;99.90;;;;;;4977720;28;20034;-81
2023/09/22 08:24:07;;;;;;;1.20;1.10;;;14.50;99.90;;;;;;4972261;28;20031;-80
2023/09/22 08:26:33;;;;;;;4.43;2.45;;;14.50;99.90;;;;;;4973302;28;20031;-79
2023/09/22 08:29:05;;;;;;;2.33;1.13;;;14.50;99.90;;;;;;4971558;28;20030;-81
2023/09/22 08:31:31;;;;;;;1.98;1.10;;;14.50;99.90;;;;;;4971972;28;20038;-81
2023/09/22 08:33:57;;;;;;;1.55;0.82;;;14.60;99.90;;;;;;4971452;28;20037;-81
2023/09/22 08:36:23;;;;;;;1.58;0.93;;;14.60;99.90;;;;;;4971136;28;20026;-79
2023/09/22 08:38:51;;;;;;;0.90;0.90;;;14.60;99.90;;;;;;4970538;28;20063;-80
2023/09/22 08:41:17;;;;;;;2.15;1.15;;;14.60;99.90;;;;;;4973965;28;20600;-80
2023/09/22 08:43:45;;;;;;;1.95;1.20;;;14.70;99.90;;;;;;4955573;28;20038;-81
2023/09/22 08:46:11;;;;;;;1.45;1.25;;;14.70;99.90;;;;;;4954169;28;20023;-81
2023/09/22 08:48:37;;;;;;;1.60;1.02;;;14.70;99.90;;;;;;4973619;28;20019;-82
2023/09/22 08:51:04;;;;;;;1.60;1.10;;;14.70;99.90;;;;;;4957098;28;20492;-81
2023/09/22 08:53:30;;;;;;;3.45;1.23;;;14.80;99.90;;;;;;4978124;28;20507;-81
2023/09/22 08:55:56;;;;;;;2.22;1.10;;;14.90;99.90;;;;;;4932721;28;20031;-81
2023/09/22 08:58:22;;;;;;;1.70;1.60;;;14.90;99.90;;;;;;4975953;28;20035;-81
2023/09/22 09:00:51;;;;;;;2.15;1.60;;;14.90;99.90;;;;;;4958567;28;20489;-81
2023/09/22 09:03:20;;;;;;;2.30;1.35;;;14.90;99.90;;;;;;4977945;28;20054;-80
2023/09/22 09:05:46;;;;;;;1.48;1.38;;;14.90;99.90;;;;;;4975591;28;20511;-81
2023/09/22 09:08:14;;;;;;;3.53;1.40;;;14.90;99.90;;;;;;4974325;28;20058;-80
2023/09/22 09:10:42;;;;;;;1.85;1.20;;;15.00;99.90;;;;;;4976231;28;20439;-79
2023/09/22 09:13:15;;;;;;;2.55;1.27;;;15.00;99.90;;;;;;4975418;28;20053;-80
2023/09/22 09:15:55;;;;;;;1.60;1.10;;;15.00;99.90;;;;;;4972723;28;20022;-80
2023/09/22 09:18:24;;;;;;;2.50;1.05;;;15.00;99.90;;;;;;4972528;28;20033;-80
2023/09/22 09:21:10;;;;;;;1.38;1.25;;;15.00;99.90;;;;;;4975743;28;20043;-80
2023/09/22 09:23:38;;;;;;;5.93;1.17;;;15.00;99.90;;;;;;4956070;28;20089;-80
2023/09/22 09:26:04;;;;;;;2.85;1.00;;;15.00;99.90;;;;;;4975637;28;20042;-81
2023/09/22 09:28:30;;;;;;;2.63;1.27;;;15.00;99.90;;;;;;4973794;28;20066;-81
2023/09/22 09:30:59;;;;;;;1.17;1.00;;;15.10;99.90;;;;;;4975288;28;20030;-81
2023/09/22 09:33:31;;;;;;;2.92;1.10;;;15.10;99.90;;;;;;4972528;28;20109;-80
2023/09/22 09:36:13;;;;;;;1.13;1.10;;;15.10;99.90;;;;;;4973465;28;20396;-80
2023/09/22 09:38:41;;;;;;;1.27;1.10;;;15.10;99.90;;;;;;4974364;28;20038;-79
2023/09/22 09:41:09;;;;;;;1.25;0.80;;;15.10;99.90;;;;;;4973543;28;20498;-83
2023/09/22 09:43:36;;;;;;;1.00;1.00;;;15.10;99.90;;;;;;4973597;28;20039;-82
2023/09/22 09:46:02;;;;;;;1.30;1.17;;;15.10;99.90;;;;;;4955046;28;20042;-82
2023/09/22 09:48:28;;;;;;;1.67;0.80;;;15.10;99.90;;;;;;4956421;28;20031;-83
2023/09/22 09:50:58;;;;;;;1.23;1.00;;;15.20;99.90;;;;;;4972551;28;20022;-83
2023/09/22 09:53:31;;;;;;;1.20;1.10;;;15.20;99.90;;;;;;4973411;28;20109;-82
2023/09/22 09:56:03;;;;;;;2.38;0.93;;;15.20;99.90;;;;;;4975734;28;20475;-83
2023/09/22 09:58:31;;;;;;;1.10;1.00;;;15.10;99.90;;;;;;4971946;28;20712;-80
2023/09/22 10:01:01;;;;;;;1.63;1.13;;;15.10;99.90;;;;;;4962750;28;20035;-81
2023/09/22 10:03:27;;;;;;;1.98;1.10;;;15.10;99.90;;;;;;4976674;28;20050;-80
2023/09/22 10:05:55;;;;;;;1.00;0.95;;;15.00;99.90;;;;;;4972295;28;20408;-82
2023/09/22 10:08:26;;;;;;;3.90;0.90;;;15.00;99.90;;;;;;4971710;28;20078;-82
2023/09/22 10:11:03;;;;;;;2.30;0.98;;;15.00;99.90;;;;;;4968340;28;20026;-81
2023/09/22 10:13:29;;;;;;;1.65;1.25;;;14.90;99.90;;;;;;4967690;28;20031;-84
2023/09/22 10:16:00;;;;;;;1.40;1.05;;;14.80;99.90;;;;;;4969619;28;20584;-80
2023/09/22 10:18:45;;;;;;;1.30;1.05;;;14.80;99.90;;;;;;4948758;28;20098;-82
2023/09/22 10:21:30;;;;;;;2.00;1.00;;;14.80;99.90;;;;;;4967119;28;20503;-80
2023/09/22 10:24:15;;;;;;;1.67;0.88;;;14.70;99.90;;;;;;4968713;28;20027;-82
2023/09/22 10:26:54;;;;;;;1.63;0.90;;;14.70;99.90;;;;;;4942737;28;20039;-80
2023/09/22 10:29:35;;;;;;;1.38;1.00;;;14.70;99.90;;;;;;4972820;28;20483;-79
2023/09/22 10:32:18;;;;;;;2.10;1.10;;;14.70;99.90;;;;;;4969221;28;20015;-80
2023/09/22 10:34:51;;;;;;;1.23;1.13;;;14.70;99.90;;;;;;4971832;28;20035;-81
2023/09/22 10:37:22;;;;;;;2.72;1.00;;;14.60;99.90;;;;;;4971904;28;20045;-80
2023/09/22 10:39:53;;;;;;;1.02;1.02;;;14.70;99.90;;;;;;4974057;28;20030;-81
2023/09/22 10:42:23;;;;;;;1.00;1.00;;;14.70;99.90;;;;;;4972563;28;20038;-82
2023/09/22 10:45:01;;;;;;;1.67;1.10;;;14.70;99.90;;;;;;4956130;28;20147;-83
2023/09/22 10:47:44;;;;;;;2.17;1.00;;;14.80;99.90;;;;;;4967264;28;20117;-80
2023/09/22 10:50:14;;;;;;;1.00;0.90;;;14.80;99.90;;;;;;4955049;28;20469;-81
2023/09/22 10:52:48;;;;;;;2.58;1.05;;;14.80;99.90;;;;;;4959269;28;20019;-81
2023/09/22 10:55:23;;;;;;;2.55;1.20;;;14.80;99.90;;;;;;4970228;28;20030;-82
2023/09/22 10:57:49;;;;;;;1.45;1.05;;;14.80;99.90;;;;;;4972788;28;20113;-81
2023/09/22 11:00:16;;;;;;;1.23;1.13;;;14.80;99.90;;;;;;4972331;28;20041;-82
2023/09/22 11:02:42;;;;;;;3.95;1.00;;;14.80;99.90;;;;;;4949434;28;20030;-81
2023/09/22 11:05:11;;;;;;;1.65;1.48;;;14.90;99.90;;;;;;4953473;28;20046;-81
2023/09/22 11:07:37;;;;;;;1.52;1.08;;;14.90;99.90;;;;;;4971055;28;20078;-82
2023/09/22 11:10:04;;;;;;;1.83;1.17;;;15.00;99.90;;;;;;4969856;28;20046;-83
2023/09/22 11:12:31;;;;;;;4.25;1.38;;;15.00;99.90;;;;;;4966736;28;20039;-81
2023/09/22 11:14:57;;;;;;;1.48;1.20;;;15.10;99.90;;;;;;4971975;28;20428;-82
2023/09/22 11:17:37;;;;;;;2.05;1.27;;;15.20;99.90;;;;;;4969235;28;20604;-82
2023/09/22 11:20:12;;;;;;;2.05;1.30;;;15.30;99.90;;;;;;4967117;28;20051;-79
2023/09/22 11:22:41;;;;;;;2.17;1.33;;;15.40;99.90;;;;;;4970456;28;20081;-82
2023/09/22 11:25:09;;;;;;;2.65;1.20;;;15.40;99.90;;;;;;4958986;28;20512;-80
2023/09/22 11:27:47;;;;;;;1.73;1.33;;;15.50;99.90;;;;;;4952043;28;20027;-80
2023/09/22 11:30:16;;;;;;;1.50;1.10;;;15.60;99.90;;;;;;4965134;28;20026;-79
2023/09/22 11:32:45;;;;;;;1.38;1.27;;;15.60;99.90;;;;;;4962266;28;20392;-81
2023/09/22 11:35:33;;;;;;;2.00;1.20;;;15.70;99.90;;;;;;4953836;28;20050;-81
2023/09/22 11:38:00;;;;;;;1.83;1.05;;;15.70;99.90;;;;;;4968602;28;20466;-81
2023/09/22 11:40:28;;;;;;;2.22;1.90;;;15.80;99.90;;;;;;4965402;28;20110;-83
2023/09/22 11:42:55;;;;;;;2.20;2.00;;;15.80;99.90;;;;;;4940091;28;20162;-81
2023/09/22 11:45:22;;;;;;;1.42;1.15;;;15.90;99.90;;;;;;4955665;28;20062;-80
2023/09/22 11:47:49;;;;;;;1.60;1.23;;;15.90;99.90;;;;;;4971669;28;20515;-80
2023/09/22 11:50:27;;;;;;;2.22;1.38;;;15.80;99.90;;;;;;4974916;28;20492;-81
2023/09/22 11:53:17;;;;;;;0.90;0.90;;;15.80;99.90;;;;;;4968762;28;20023;-80
2023/09/22 11:55:46;;;;;;;1.30;1.20;;;15.80;99.90;;;;;;4967215;28;20066;-81
2023/09/22 11:58:11;;;;;;;1.10;1.00;;;15.80;99.90;;;;;;4971238;28;20062;-79
2023/09/22 12:00:38;;;;;;;2.28;1.00;;;15.80;99.90;;;;;;4955086;28;20026;-81
2023/09/22 12:03:05;;;;;;;1.10;1.00;;;15.70;99.90;;;;;;4971833;28;20519;-81
2023/09/22 12:05:30;;;;;;;1.20;1.10;;;15.60;99.90;;;;;;4954150;28;20046;-82
2023/09/22 12:07:57;;;;;;;1.10;1.00;;;15.60;99.90;;;;;;4950535;28;20026;-83
2023/09/22 12:10:23;;;;;;;2.33;1.50;;;15.50;99.90;;;;;;4966413;28;20034;-81
2023/09/22 12:12:48;;;;;;;1.63;1.20;;;15.60;99.90;;;;;;4973457;28;20122;-81
2023/09/22 12:15:14;;;;;;;2.47;1.20;;;15.40;99.90;;;;;;4952309;28;20038;-80
2023/09/22 12:17:40;;;;;;;2.42;1.20;;;15.40;99.90;;;;;;4969633;28;20042;-81
2023/09/22 12:20:06;;;;;;;1.48;1.38;;;15.50;99.90;;;;;;4952627;28;20407;-80
2023/09/22 12:22:32;;;;;;;1.20;1.10;;;15.50;99.90;;;;;;4951140;28;20057;-80
2023/09/22 12:24:58;;;;;;;3.83;1.08;;;15.60;99.90;;;;;;4968599;28;20512;-80
2023/09/22 12:27:23;;;;;;;2.10;1.10;;;15.50;99.90;;;;;;4966850;28;20046;-80
2023/09/22 12:29:49;;;;;;;1.65;1.10;;;15.50;99.90;;;;;;4958241;28;20027;-81
2023/09/22 12:32:15;;;;;;;2.65;1.00;;;15.50;99.90;;;;;;4967164;28;20097;-80
2023/09/22 12:34:40;;;;;;;2.42;1.20;;;15.50;99.90;;;;;;4952374;28;20059;-79
2023/09/22 12:37:06;;;;;;;1.00;0.90;;;15.50;99.90;;;;;;4965123;28;20539;-80
2023/09/22 12:39:32;;;;;;;1.85;1.15;;;15.60;99.90;;;;;;4953901;28;20035;-80
2023/09/22 12:41:58;;;;;;;1.88;1.23;;;15.60;99.90;;;;;;4952247;28;20033;-81
2023/09/22 12:44:23;;;;;;;1.42;0.98;;;15.70;99.90;;;;;;4964198;28;20054;-81
2023/09/22 12:46:50;;;;;;;0.75;0.75;;;15.60;99.90;;;;;;4965389;28;20027;-81
2023/09/22 12:49:19;;;;;;;2.13;1.30;;;15.70;99.90;;;;;;4947818;28;20031;-81
2023/09/22 12:51:44;;;;;;;1.23;0.70;;;15.60;99.90;;;;;;4963904;28;20031;-80
2023/09/22 12:54:48;;;;;;;1.27;0.80;;;15.60;99.90;;;;;;4948604;28;20039;-82